Time;durP1;ratioP1;P1;durP2;ratioP2;P2;SDS_P1;SDS_P2;PMS_P1;PMS_P2;Temp;Humidity;BMP_temperature;BMP_pressure;BME280_temperature;BME280_humidity;BME280_pressure;Samples;Min_cycle;Max_cycle;Signal;HPM_P1;HPM_P2
2022/03/22 00:00:55;;;;;;;27.63;17.02;;;2.10;99.90;;;;;;5048829;28;20077;-82
2022/03/22 00:03:46;;;;;;;33.13;18.38;;;2.10;99.90;;;;;;5051302;28;20481;-82
2022/03/22 00:06:34;;;;;;;39.03;18.83;;;2.00;99.90;;;;;;5065398;28;20051;-83
2022/03/22 00:09:22;;;;;;;36.80;19.05;;;2.00;99.90;;;;;;5069948;28;20186;-82
2022/03/22 00:12:13;;;;;;;41.60;19.67;;;1.80;99.90;;;;;;5069034;28;20053;-83
2022/03/22 00:15:02;;;;;;;41.80;19.50;;;1.80;99.90;;;;;;5069137;28;20480;-82
2022/03/22 00:18:13;;;;;;;33.55;17.83;;;1.80;99.90;;;;;;5066455;28;20414;-83
2022/03/22 00:21:01;;;;;;;29.17;16.35;;;1.70;99.90;;;;;;5057759;28;20444;-83
2022/03/22 00:23:51;;;;;;;27.27;15.60;;;1.60;99.90;;;;;;5059575;28;20048;-83
2022/03/22 00:26:46;;;;;;;29.83;15.57;;;1.70;99.90;;;;;;5076394;28;20125;-83
2022/03/22 00:29:34;;;;;;;31.35;15.15;;;1.80;99.90;;;;;;5053733;28;20037;-83
2022/03/22 00:32:26;;;;;;;30.52;16.83;;;1.70;99.90;;;;;;5085266;28;20056;-83
2022/03/22 00:35:17;;;;;;;28.20;16.75;;;1.60;99.90;;;;;;5088064;28;20484;-82
2022/03/22 00:38:11;;;;;;;31.08;17.27;;;1.60;99.90;;;;;;5078408;28;20066;-84
2022/03/22 00:40:59;;;;;;;34.28;17.70;;;1.60;99.90;;;;;;5083792;28;20104;-83
2022/03/22 00:43:47;;;;;;;29.25;16.95;;;1.60;99.90;;;;;;5076980;28;20131;-83
2022/03/22 00:46:34;;;;;;;25.25;14.82;;;1.50;99.90;;;;;;5079454;28;20044;-84
2022/03/22 00:49:22;;;;;;;31.35;15.35;;;1.60;99.90;;;;;;5077039;28;20048;-83
2022/03/22 00:52:09;;;;;;;30.20;15.98;;;1.70;99.90;;;;;;5067212;28;20036;-82
2022/03/22 00:54:57;;;;;;;27.50;15.55;;;1.70;99.90;;;;;;5056092;28;20057;-83
2022/03/22 00:57:44;;;;;;;27.30;15.35;;;1.60;99.90;;;;;;5075487;28;20047;-83
2022/03/22 01:00:33;;;;;;;28.48;15.63;;;1.60;99.90;;;;;;5077424;28;20049;-83
2022/03/22 01:03:23;;;;;;;27.50;16.65;;;1.60;99.90;;;;;;5080920;28;20055;-82
2022/03/22 01:06:10;;;;;;;32.05;14.95;;;1.60;99.90;;;;;;5063806;28;20049;-83
2022/03/22 01:08:58;;;;;;;32.67;15.55;;;1.50;99.90;;;;;;5083469;28;20100;-84
2022/03/22 01:11:48;;;;;;;27.80;15.48;;;1.40;99.90;;;;;;5061223;28;20053;-82
2022/03/22 01:14:38;;;;;;;29.65;15.93;;;1.40;99.90;;;;;;5072440;28;20044;-83
2022/03/22 01:17:25;;;;;;;29.13;16.35;;;1.40;99.90;;;;;;5059974;28;20041;-82
2022/03/22 01:20:14;;;;;;;29.65;15.73;;;1.30;99.90;;;;;;5063972;28;20074;-82
2022/03/22 01:23:03;;;;;;;31.15;16.92;;;1.30;99.90;;;;;;5054914;28;20040;-84
2022/03/22 01:25:55;;;;;;;35.47;16.08;;;1.40;99.90;;;;;;5068064;28;20100;-83
2022/03/22 01:28:46;;;;;;;28.27;16.50;;;1.40;99.90;;;;;;5090659;28;20043;-82
2022/03/22 01:31:34;;;;;;;28.40;16.17;;;1.40;99.90;;;;;;5084656;28;20390;-83
2022/03/22 01:34:23;;;;;;;32.25;17.17;;;1.40;99.90;;;;;;5084774;28;20266;-80
2022/03/22 01:37:11;;;;;;;32.80;17.45;;;1.40;99.90;;;;;;5085518;28;20052;-83
2022/03/22 01:40:01;;;;;;;30.55;15.55;;;1.30;99.90;;;;;;5081427;28;20102;-82
2022/03/22 01:42:49;;;;;;;25.77;14.93;;;1.20;99.90;;;;;;5083000;28;20105;-83
2022/03/22 01:45:38;;;;;;;26.30;14.23;;;1.20;99.90;;;;;;5076787;28;20044;-84
2022/03/22 01:48:27;;;;;;;27.98;16.10;;;1.20;99.90;;;;;;5078646;28;20051;-83
2022/03/22 01:51:21;;;;;;;31.17;15.52;;;1.10;99.90;;;;;;5070854;28;20036;-82
2022/03/22 01:54:09;;;;;;;27.15;16.20;;;1.00;99.90;;;;;;5078107;28;20201;-83
2022/03/22 01:57:00;;;;;;;27.85;15.95;;;1.00;99.90;;;;;;5085527;28;20049;-83
2022/03/22 01:59:48;;;;;;;28.00;16.60;;;1.20;99.90;;;;;;5056051;28;20087;-81
2022/03/22 02:05:57;;;;;;;31.67;17.30;;;1.20;99.90;;;;;;5069192;28;20041;-82
2022/03/22 02:08:44;;;;;;;29.27;17.38;;;1.10;99.90;;;;;;5072706;28;20041;-82
2022/03/22 02:11:32;;;;;;;27.85;16.02;;;1.00;99.90;;;;;;5088631;28;20128;-84
2022/03/22 02:14:19;;;;;;;31.65;17.20;;;1.00;99.90;;;;;;5083547;28;20047;-81
2022/03/22 02:17:12;;;;;;;30.23;16.52;;;0.90;99.90;;;;;;5079845;28;20033;-81
2022/03/22 02:20:03;;;;;;;;;;;0.80;99.90;;;;;;5073466;28;20049;-82
2022/03/22 02:23:10;;;;;;;26.05;15.45;;;0.90;99.90;;;;;;5100206;28;20322;-83
2022/03/22 02:26:06;;;;;;;27.33;15.23;;;0.90;99.90;;;;;;5073683;28;20083;-84
2022/03/22 02:28:54;;;;;;;23.55;14.15;;;0.90;99.90;;;;;;5066450;28;20127;-82
2022/03/22 02:31:42;;;;;;;30.38;16.58;;;0.80;99.90;;;;;;5076713;28;20436;-83
2022/03/22 02:34:35;;;;;;;28.15;15.55;;;0.70;99.90;;;;;;5056684;28;20120;-82
2022/03/22 02:37:22;;;;;;;29.52;15.63;;;0.70;99.90;;;;;;5054621;28;20052;-84
2022/03/22 02:40:12;;;;;;;33.65;15.88;;;0.60;99.90;;;;;;5074506;28;20351;-82
2022/03/22 02:43:01;;;;;;;35.45;17.15;;;0.60;99.90;;;;;;5068322;28;20314;-83
2022/03/22 02:45:48;;;;;;;27.05;15.93;;;0.70;99.90;;;;;;5067790;28;20041;-84
2022/03/22 02:48:36;;;;;;;28.15;16.27;;;0.80;99.90;;;;;;5060711;28;20045;-82
2022/03/22 02:51:23;;;;;;;30.00;17.50;;;0.80;99.90;;;;;;5062859;28;20055;-81
2022/03/22 02:54:10;;;;;;;35.85;16.98;;;0.70;99.90;;;;;;5052832;28;20131;-82
2022/03/22 02:56:59;;;;;;;34.25;18.38;;;0.70;99.90;;;;;;5074213;28;20041;-83
2022/03/22 02:59:49;;;;;;;31.55;16.75;;;0.50;99.90;;;;;;5055030;28;20045;-83
2022/03/22 03:02:44;;;;;;;28.70;16.77;;;0.50;99.90;;;;;;5068663;28;20115;-83
2022/03/22 03:05:32;;;;;;;28.05;17.33;;;0.40;99.90;;;;;;5062928;28;20380;-82
2022/03/22 03:08:21;;;;;;;28.20;16.73;;;0.30;99.90;;;;;;5083805;28;20109;-81
2022/03/22 03:11:12;;;;;;;30.08;17.33;;;0.20;99.90;;;;;;5090152;28;20460;-82
2022/03/22 03:17:14;;;;;;;33.72;17.92;;;0.00;99.90;;;;;;5073516;28;20044;-83
2022/03/22 03:20:04;;;;;;;28.15;16.35;;;-0.10;99.90;;;;;;5080600;28;20365;-83
2022/03/22 03:22:59;;;;;;;31.92;18.08;;;-0.10;99.90;;;;;;5063362;28;20037;-82
2022/03/22 03:25:54;;;;;;;32.95;17.83;;;-0.10;99.90;;;;;;5057051;28;20155;-85
2022/03/22 03:28:42;;;;;;;34.38;18.10;;;-0.10;99.90;;;;;;5063367;28;20055;-83
2022/03/22 03:31:32;;;;;;;31.65;17.90;;;-0.10;99.90;;;;;;5060564;28;20089;-83
2022/03/22 03:34:19;;;;;;;33.08;18.35;;;-0.10;99.90;;;;;;5072507;28;20071;-83
2022/03/22 03:37:08;;;;;;;30.25;19.27;;;-0.20;99.90;;;;;;5071577;28;20080;-83
2022/03/22 03:39:57;;;;;;;37.97;19.95;;;-0.30;99.90;;;;;;5060419;28;20048;-83
2022/03/22 03:42:45;;;;;;;31.25;18.52;;;-0.30;99.90;;;;;;5081880;28;20044;-83
2022/03/22 03:48:39;;;;;;;38.60;19.17;;;-0.40;99.90;;;;;;5060212;28;20082;-83
2022/03/22 03:51:29;;;;;;;35.53;19.33;;;-0.40;99.90;;;;;;5071157;28;20072;-84
2022/03/22 03:54:18;;;;;;;32.42;18.58;;;-0.40;99.90;;;;;;5080440;28;20059;-82
2022/03/22 03:57:09;;;;;;;36.30;18.08;;;-0.30;99.90;;;;;;5063216;28;20074;-83
2022/03/22 03:59:57;;;;;;;32.83;18.38;;;-0.40;99.90;;;;;;5071559;28;20447;-83
2022/03/22 04:02:47;;;;;;;34.47;18.98;;;-0.40;99.90;;;;;;5074289;28;20461;-82
2022/03/22 04:05:37;;;;;;;33.30;19.25;;;-0.40;99.90;;;;;;5073734;28;20133;-83
2022/03/22 04:08:28;;;;;;;36.10;19.38;;;-0.40;99.90;;;;;;5058866;28;20117;-82
2022/03/22 04:11:17;;;;;;;36.92;19.50;;;-0.40;99.90;;;;;;5073844;28;20142;-82
2022/03/22 04:14:04;;;;;;;32.22;17.95;;;-0.40;99.90;;;;;;5067445;28;20043;-84
2022/03/22 04:16:52;;;;;;;26.52;15.63;;;-0.30;99.90;;;;;;5052415;28;20060;-84
2022/03/22 04:19:39;;;;;;;29.20;16.20;;;-0.30;99.90;;;;;;5075177;28;20064;-83
2022/03/22 04:22:27;;;;;;;29.42;17.08;;;-0.10;99.90;;;;;;5069275;28;20047;-84
2022/03/22 04:25:32;;;;;;;33.60;17.17;;;0.10;99.90;;;;;;5065073;28;20085;-84
2022/03/22 04:34:53;;;;;;;28.92;18.13;;;0.40;99.90;;;;;;5070945;28;20048;-83
2022/03/22 04:37:41;;;;;;;35.35;18.13;;;0.30;99.90;;;;;;5060078;28;20064;-83
2022/03/22 04:40:31;;;;;;;28.67;17.38;;;0.30;99.90;;;;;;5085918;28;20127;-82
2022/03/22 04:43:19;;;;;;;33.78;19.48;;;0.20;99.90;;;;;;5066304;28;20071;-82
2022/03/22 04:46:07;;;;;;;29.70;18.02;;;0.10;99.90;;;;;;5069925;28;20116;-81
2022/03/22 04:49:00;;;;;;;35.63;19.90;;;0.10;99.90;;;;;;5067314;28;20185;-81
2022/03/22 04:58:03;;;;;;;31.55;18.13;;;-0.10;99.90;;;;;;5063477;28;20048;-85
2022/03/22 05:00:54;;;;;;;34.78;20.33;;;0.00;99.90;;;;;;5072674;28;20090;-83
2022/03/22 05:03:42;;;;;;;34.78;20.08;;;0.10;99.90;;;;;;5072246;28;20063;-81
2022/03/22 05:06:31;;;;;;;33.10;19.42;;;0.20;99.90;;;;;;5056045;28;20098;-81
2022/03/22 05:09:22;;;;;;;36.85;20.17;;;0.30;99.90;;;;;;5061164;28;20384;-82
2022/03/22 05:12:13;;;;;;;34.05;20.52;;;0.30;99.90;;;;;;5074698;28;20048;-81
2022/03/22 05:15:01;;;;;;;35.95;19.58;;;0.30;99.90;;;;;;5062192;28;20060;-83
2022/03/22 05:17:48;;;;;;;36.83;19.80;;;0.20;99.90;;;;;;5069211;28;20048;-82
2022/03/22 05:20:36;;;;;;;35.35;19.33;;;0.20;99.90;;;;;;5063937;28;20036;-82
2022/03/22 05:23:23;;;;;;;39.22;19.08;;;0.20;99.90;;;;;;5077686;28;20491;-82
2022/03/22 05:26:13;;;;;;;32.70;19.75;;;0.10;99.90;;;;;;5079624;28;20047;-83
2022/03/22 05:29:04;;;;;;;34.70;19.48;;;0.00;99.90;;;;;;5061045;28;20048;-83
2022/03/22 05:31:54;;;;;;;35.45;19.50;;;-0.10;99.90;;;;;;5061912;28;20136;-82
2022/03/22 05:34:41;;;;;;;34.40;19.85;;;-0.20;99.90;;;;;;5068268;28;20041;-81
2022/03/22 05:58:09;;;;;;;40.00;19.80;;;0.10;99.90;;;;;;4936147;23;20079;-82
2022/03/22 06:00:57;;;;;;;37.03;20.80;;;0.10;99.90;;;;;;4922046;29;20056;-82
2022/03/22 06:03:44;;;;;;;35.00;19.60;;;0.00;99.90;;;;;;4909814;29;20037;-84
2022/03/22 06:06:37;;;;;;;41.53;21.63;;;0.10;99.90;;;;;;4917614;29;20323;-81
2022/03/22 06:09:26;;;;;;;37.80;20.83;;;0.10;99.90;;;;;;4904556;29;20076;-88
2022/03/22 06:12:25;;;;;;;;;;;;;;;;;;;;;
2022/03/22 06:15:15;;;;;;;37.58;20.35;;;0.20;99.90;;;;;;4922583;29;20535;-84
2022/03/22 06:18:06;;;;;;;39.20;20.92;;;0.20;99.90;;;;;;4920515;28;20051;-83
2022/03/22 06:20:55;;;;;;;39.47;21.17;;;0.20;99.90;;;;;;4924830;29;20737;-84
2022/03/22 06:23:47;;;;;;;37.97;20.08;;;0.30;99.90;;;;;;4936499;29;20399;-85
2022/03/22 06:26:34;;;;;;;38.63;21.42;;;0.40;99.90;;;;;;4935977;29;20048;-84
2022/03/22 06:29:24;;;;;;;35.70;19.75;;;0.50;99.90;;;;;;4917535;29;20144;-84
2022/03/22 06:32:13;;;;;;;39.13;19.73;;;0.70;99.90;;;;;;4919184;29;20107;-85
2022/03/22 06:35:04;;;;;;;35.97;20.02;;;0.80;99.90;;;;;;4921943;29;20044;-84
2022/03/22 06:38:11;;;;;;;37.95;21.38;;;1.20;99.90;;;;;;4904978;29;20044;-83
2022/03/22 06:41:04;;;;;;;32.10;18.63;;;1.60;99.90;;;;;;4919961;29;20047;-81
2022/03/22 06:43:54;;;;;;;35.05;18.70;;;1.90;99.90;;;;;;4918842;29;20505;-82
2022/03/22 06:46:42;;;;;;;29.80;17.73;;;2.50;99.90;;;;;;4901865;29;20430;-83
2022/03/22 06:49:34;;;;;;;30.77;17.67;;;3.10;99.90;;;;;;4922755;28;20052;-83
2022/03/22 06:52:23;;;;;;;28.83;16.57;;;3.80;99.90;;;;;;4914572;29;20048;-84
2022/03/22 06:55:13;;;;;;;31.10;18.42;;;4.50;99.90;;;;;;4902296;29;20120;-85
2022/03/22 06:58:03;;;;;;;30.77;19.05;;;4.70;99.90;;;;;;4919560;29;20056;-84
2022/03/22 07:00:55;;;;;;;40.60;20.23;;;4.60;99.10;;;;;;4932919;28;20059;-83
2022/03/22 07:03:42;;;;;;;26.73;14.98;;;4.50;99.00;;;;;;4925732;29;20074;-83
2022/03/22 07:06:30;;;;;;;32.33;19.17;;;4.50;99.10;;;;;;4913723;29;20052;-82
2022/03/22 07:09:20;;;;;;;37.45;21.50;;;4.60;99.00;;;;;;4917604;29;20055;-83
2022/03/22 07:12:13;;;;;;;33.40;19.77;;;4.80;98.40;;;;;;4932218;29;20072;-81
2022/03/22 07:15:04;;;;;;;35.55;19.85;;;5.00;97.70;;;;;;4930236;29;20143;-82
2022/03/22 07:17:55;;;;;;;38.53;19.92;;;5.10;96.90;;;;;;4922670;29;20060;-84
2022/03/22 07:20:44;;;;;;;41.55;19.92;;;5.20;96.10;;;;;;4913831;29;20043;-83
2022/03/22 07:23:32;;;;;;;34.53;20.02;;;5.10;96.30;;;;;;4920762;28;20072;-83
2022/03/22 07:26:19;;;;;;;37.10;20.95;;;5.10;96.90;;;;;;4913299;29;20067;-83
2022/03/22 07:29:08;;;;;;;36.97;21.35;;;5.10;96.60;;;;;;4908042;29;20048;-82
2022/03/22 07:32:02;;;;;;;39.92;20.65;;;5.30;96.90;;;;;;4928161;29;20044;-82
2022/03/22 07:34:51;;;;;;;36.25;19.17;;;5.60;95.80;;;;;;4916269;29;20040;-82
2022/03/22 07:37:38;;;;;;;32.90;18.60;;;6.10;94.80;;;;;;4916049;28;20059;-83
2022/03/22 07:40:26;;;;;;;33.50;18.20;;;6.70;92.50;;;;;;4906863;29;20064;-84
2022/03/22 07:43:13;;;;;;;30.33;18.55;;;7.10;90.40;;;;;;4905532;29;20807;-82
2022/03/22 07:46:00;;;;;;;29.05;18.23;;;7.50;89.60;;;;;;4899308;29;20119;-82
2022/03/22 07:48:48;;;;;;;28.38;17.88;;;8.00;90.10;;;;;;4914858;29;20167;-82
2022/03/22 07:54:42;;;;;;;31.40;18.95;;;8.90;82.50;;;;;;4924082;29;20043;-84
2022/03/22 07:57:30;;;;;;;28.15;16.63;;;9.20;80.10;;;;;;4917760;29;20055;-83
2022/03/22 08:00:18;;;;;;;30.85;18.00;;;9.70;81.90;;;;;;4919906;29;20518;-83
2022/03/22 08:06:07;;;;;;;28.42;17.45;;;10.90;73.20;;;;;;4922736;29;20069;-84
2022/03/22 08:08:57;;;;;;;25.05;17.17;;;11.00;67.20;;;;;;4916086;29;20059;-85
2022/03/22 08:11:45;;;;;;;25.83;17.20;;;11.30;63.80;;;;;;4923656;29;20036;-84
2022/03/22 08:14:33;;;;;;;24.95;16.13;;;11.10;67.70;;;;;;4911537;29;20047;-84
2022/03/22 08:17:21;;;;;;;25.92;15.77;;;11.60;62.50;;;;;;4901454;29;20052;-88
2022/03/22 08:20:14;;;;;;;21.98;15.55;;;12.20;61.10;;;;;;4919633;29;20059;-83
2022/03/22 08:23:07;;;;;;;24.27;15.88;;;13.10;59.20;;;;;;4904813;29;20055;-85
2022/03/22 08:25:54;;;;;;;21.25;14.52;;;13.90;53.20;;;;;;4928919;28;20072;-85
2022/03/22 08:28:44;;;;;;;25.85;15.32;;;14.50;54.60;;;;;;4919884;29;20135;-84
2022/03/22 08:32:00;;;;;;;22.88;14.52;;;15.10;52.50;;;;;;4925614;29;20044;-85
2022/03/22 08:34:50;;;;;;;19.05;14.52;;;16.00;47.60;;;;;;4916488;29;20119;-85
2022/03/22 08:37:42;;;;;;;26.30;14.65;;;16.60;46.30;;;;;;4914998;29;20052;-85
2022/03/22 08:40:31;;;;;;;26.80;16.65;;;17.00;45.80;;;;;;4917544;29;20186;-84
2022/03/22 08:43:24;;;;;;;26.77;16.73;;;17.10;44.20;;;;;;4930289;29;20067;-80
2022/03/22 08:46:14;;;;;;;23.35;16.17;;;15.50;44.90;;;;;;4932872;28;20059;-83
2022/03/22 08:49:06;;;;;;;28.15;17.08;;;14.90;48.80;;;;;;4938363;28;20067;-83
2022/03/22 08:51:55;;;;;;;25.92;17.25;;;15.80;48.50;;;;;;4924220;29;20047;-83
2022/03/22 08:54:43;;;;;;;25.77;16.10;;;16.20;45.30;;;;;;4917643;28;20055;-81
2022/03/22 08:57:31;;;;;;;25.75;16.55;;;16.20;45.10;;;;;;4931349;29;20048;-82
2022/03/22 09:00:22;;;;;;;25.63;16.33;;;16.20;44.80;;;;;;4929793;29;20055;-84
2022/03/22 09:03:12;;;;;;;24.30;16.13;;;15.80;45.20;;;;;;4931838;29;20044;-81
2022/03/22 09:06:11;;;;;;;24.52;16.45;;;14.90;47.10;;;;;;4895883;29;20120;-81
2022/03/22 09:09:05;;;;;;;26.38;16.67;;;15.40;48.00;;;;;;4912399;29;20070;-82
2022/03/22 09:11:53;;;;;;;33.03;17.13;;;15.70;45.90;;;;;;4920204;29;20050;-83
2022/03/22 09:14:42;;;;;;;25.45;17.02;;;15.50;46.70;;;;;;4909692;29;20059;-81
2022/03/22 09:17:35;;;;;;;24.88;15.98;;;15.70;45.80;;;;;;4920404;29;20060;-85
2022/03/22 09:20:32;;;;;;;24.70;17.00;;;16.80;47.50;;;;;;4908196;29;20052;-83
2022/03/22 09:23:21;;;;;;;22.65;14.95;;;18.10;41.60;;;;;;4909947;29;20354;-82
2022/03/22 09:26:10;;;;;;;21.83;14.93;;;18.00;41.60;;;;;;4912854;29;20140;-83
2022/03/22 09:29:15;;;;;;;21.15;15.02;;;18.20;39.70;;;;;;4925343;28;20039;-84
2022/03/22 09:32:04;;;;;;;22.73;15.30;;;19.00;40.30;;;;;;4917122;29;20111;-83
2022/03/22 09:34:59;;;;;;;22.17;15.20;;;19.60;36.60;;;;;;4907527;29;20048;-84
2022/03/22 09:37:50;;;;;;;24.87;15.57;;;18.80;37.20;;;;;;4913638;29;20056;-85
2022/03/22 09:40:39;;;;;;;19.08;14.82;;;18.50;40.90;;;;;;4932896;29;20585;-83
2022/03/22 09:43:36;;;;;;;21.20;14.68;;;19.00;37.80;;;;;;4913020;29;20131;-83
2022/03/22 09:46:32;;;;;;;18.65;14.05;;;19.50;37.00;;;;;;4915396;29;20071;-85
2022/03/22 09:49:23;;;;;;;20.95;15.05;;;20.00;36.10;;;;;;4927870;29;20047;-82
2022/03/22 09:52:19;;;;;;;21.48;13.52;;;20.90;37.80;;;;;;4930262;29;20044;-82
2022/03/22 09:55:11;;;;;;;20.40;13.48;;;22.30;33.80;;;;;;4919172;29;20040;-84
2022/03/22 09:58:01;;;;;;;18.05;13.73;;;22.70;30.70;;;;;;4908728;28;20048;-85
2022/03/22 10:00:49;;;;;;;20.02;13.95;;;22.70;31.80;;;;;;4919585;29;20087;-83
2022/03/22 10:03:42;;;;;;;16.40;12.85;;;23.00;30.30;;;;;;4907313;29;20073;-82
2022/03/22 10:06:54;;;;;;;15.50;13.25;;;23.10;30.20;;;;;;4923185;28;20067;-82
2022/03/22 10:09:54;;;;;;;17.77;12.45;;;23.60;28.00;;;;;;4924610;29;20048;-82
2022/03/22 10:12:55;;;;;;;18.27;11.95;;;22.90;30.00;;;;;;4924163;29;20059;-82
2022/03/22 10:15:49;;;;;;;17.48;12.18;;;22.50;30.50;;;;;;4920252;29;20040;-85
2022/03/22 10:18:40;;;;;;;17.85;12.02;;;22.70;26.10;;;;;;4912986;29;20155;-84
2022/03/22 10:21:42;;;;;;;14.88;12.38;;;22.40;30.00;;;;;;4922449;29;20129;-83
2022/03/22 10:24:43;;;;;;;17.10;12.80;;;22.50;30.20;;;;;;4919240;29;20048;-83
2022/03/22 10:27:36;;;;;;;19.30;12.02;;;22.80;29.30;;;;;;4906803;29;20048;-83
2022/03/22 10:30:56;;;;;;;15.85;12.52;;;23.30;27.30;;;;;;4921906;29;20402;-84
2022/03/22 10:33:53;;;;;;;23.40;13.10;;;23.80;29.30;;;;;;4909197;29;20188;-84
2022/03/22 10:36:43;;;;;;;18.40;12.55;;;22.10;27.80;;;;;;4916572;29;20055;-84
2022/03/22 10:39:39;;;;;;;19.52;13.23;;;22.20;28.10;;;;;;4934700;29;20059;-84
2022/03/22 10:42:27;;;;;;;15.63;13.13;;;22.20;29.10;;;;;;4898791;29;20059;-85
2022/03/22 10:45:18;;;;;;;21.52;13.93;;;23.00;29.90;;;;;;4915330;29;20140;-82
2022/03/22 10:48:06;;;;;;;16.48;12.50;;;22.50;28.00;;;;;;4929001;29;20059;-83
2022/03/22 10:50:57;;;;;;;16.52;13.27;;;22.50;31.20;;;;;;4933274;29;20100;-84
2022/03/22 10:53:46;;;;;;;17.75;12.73;;;23.20;27.40;;;;;;4923362;28;20096;-84
2022/03/22 10:56:46;;;;;;;17.42;12.77;;;23.90;27.70;;;;;;4917108;29;20051;-83
2022/03/22 10:59:34;;;;;;;18.88;13.77;;;24.00;27.70;;;;;;4928968;29;20054;-82
2022/03/22 11:02:24;;;;;;;16.80;12.95;;;23.90;29.00;;;;;;4931016;29;20115;-81
2022/03/22 11:05:14;;;;;;;18.58;12.77;;;24.70;28.30;;;;;;4914675;29;20044;-82
2022/03/22 11:08:03;;;;;;;17.70;13.23;;;24.50;27.60;;;;;;4936870;28;20063;-81
2022/03/22 11:10:54;;;;;;;20.50;13.18;;;24.40;28.60;;;;;;4911863;29;20024;-82
2022/03/22 11:13:48;;;;;;;17.58;12.25;;;24.90;28.80;;;;;;4939237;28;20132;-81
2022/03/22 11:16:37;;;;;;;18.63;14.23;;;25.30;27.00;;;;;;4924721;29;20032;-83
2022/03/22 11:19:25;;;;;;;17.02;14.00;;;25.50;27.30;;;;;;4940421;28;20040;-80
2022/03/22 11:22:20;;;;;;;24.65;14.40;;;24.90;27.40;;;;;;4933102;28;20032;-81
2022/03/22 11:25:12;;;;;;;18.52;13.63;;;24.80;25.40;;;;;;4926647;28;20043;-80
2022/03/22 11:28:09;;;;;;;;;;;26.20;23.80;;;;;;4934460;29;20059;-80
2022/03/22 11:30:57;;;;;;;18.73;13.70;;;26.00;26.00;;;;;;4927896;29;19931;-81
2022/03/22 11:37:02;;;;;;;16.67;13.57;;;25.80;25.80;;;;;;4941021;28;20036;-85
2022/03/22 11:43:00;;;;;;;23.92;13.48;;;26.80;26.40;;;;;;4940379;29;20047;-84
2022/03/22 11:45:51;;;;;;;18.25;13.52;;;26.40;24.90;;;;;;4907406;29;20061;-83
2022/03/22 11:48:39;;;;;;;19.70;13.60;;;26.10;27.10;;;;;;4920325;29;20037;-81
2022/03/22 11:51:29;;;;;;;18.75;14.00;;;26.10;27.00;;;;;;4892210;29;20048;-84
2022/03/22 11:54:16;;;;;;;18.33;13.30;;;25.10;26.40;;;;;;4924515;29;20066;-84
2022/03/22 11:57:05;;;;;;;22.25;14.02;;;25.20;25.10;;;;;;4918671;29;20044;-83
2022/03/22 11:59:55;;;;;;;21.98;13.23;;;25.00;25.70;;;;;;4913830;29;20048;-83
2022/03/22 12:02:47;;;;;;;21.83;14.63;;;24.80;26.30;;;;;;4928505;29;20052;-84
2022/03/22 12:05:37;;;;;;;16.45;13.75;;;24.50;27.90;;;;;;4933041;29;20116;-90
2022/03/22 12:08:34;;;;;;;18.25;13.70;;;25.10;27.10;;;;;;4932286;29;20040;-84
2022/03/22 12:11:22;;;;;;;21.38;14.32;;;26.00;24.40;;;;;;4922479;28;21082;-81
2022/03/22 12:14:12;;;;;;;17.90;13.18;;;25.70;23.80;;;;;;4928002;29;20068;-84
2022/03/22 12:17:01;;;;;;;18.98;12.93;;;26.50;24.60;;;;;;4932008;29;20059;-84
2022/03/22 12:19:49;;;;;;;19.92;13.38;;;25.90;23.20;;;;;;4916809;29;20044;-86
2022/03/22 12:22:41;;;;;;;17.60;13.52;;;25.60;24.80;;;;;;4922690;29;20379;-84
2022/03/22 12:25:30;;;;;;;21.92;13.98;;;25.50;25.80;;;;;;4906115;29;20097;-83
2022/03/22 12:28:20;;;;;;;20.40;14.05;;;26.30;25.60;;;;;;4904636;29;20088;-83
2022/03/22 12:31:14;;;;;;;24.27;14.87;;;26.80;25.10;;;;;;4917622;29;20052;-85
2022/03/22 12:34:19;;;;;;;16.75;13.60;;;25.90;25.30;;;;;;4917317;29;20288;-82
2022/03/22 12:37:19;;;;;;;17.33;13.65;;;26.30;22.60;;;;;;4922353;29;20104;-83
2022/03/22 12:40:16;;;;;;;17.08;13.07;;;25.80;24.90;;;;;;4909122;29;20055;-79
2022/03/22 12:43:11;;;;;;;19.95;14.32;;;26.30;24.40;;;;;;4918362;29;20052;-81
2022/03/22 12:46:06;;;;;;;18.63;13.75;;;26.10;24.50;;;;;;4925380;29;20055;-83
2022/03/22 13:01:51;;;;;;;19.38;13.57;;;24.10;24.40;;;;;;4916248;29;20039;-88
2022/03/22 13:05:32;;;;;;;21.83;14.25;;;25.50;26.30;;;;;;4917847;29;20107;-90
2022/03/22 13:26:27;;;;;;;19.35;14.13;;;27.80;22.40;;;;;;4835511;29;20022;-90
2022/03/22 13:29:46;;;;;;;16.90;11.85;;;27.20;21.40;;;;;;4847644;29;20056;-89
2022/03/22 13:33:10;;;;;;;14.90;11.85;;;26.90;22.30;;;;;;4896114;29;20142;-88
2022/03/22 13:36:07;;;;;;;15.43;11.68;;;27.50;21.80;;;;;;4896280;29;20222;-88
2022/03/22 13:38:59;;;;;;;18.00;11.73;;;27.20;20.90;;;;;;4899940;29;20122;-89
2022/03/22 13:41:59;;;;;;;;;;;;;;;;;;;;;
2022/03/22 13:45:11;;;;;;;;;;;;;;;;;;;;;
2022/03/22 13:48:09;;;;;;;15.13;11.90;;;28.20;20.70;;;;;;4906880;29;20045;-90
2022/03/22 13:51:01;;;;;;;17.45;12.57;;;27.50;21.20;;;;;;4900875;29;20056;-89
2022/03/22 13:53:57;;;;;;;18.25;12.80;;;26.60;22.10;;;;;;4893599;29;20063;-88
2022/03/22 14:00:13;;;;;;;20.17;13.90;;;25.80;22.30;;;;;;4907620;29;20048;-90
2022/03/22 14:03:40;;;;;;;;;;;;;;;;;;;;;
2022/03/22 14:10:54;;;;;;;19.83;13.05;;;25.70;23.90;;;;;;4798134;29;20047;-91
2022/03/22 14:18:22;;;;;;;;;;;;;;;;;;;;;
2022/03/22 14:21:30;;;;;;;;;;;;;;;;;;;;;
2022/03/22 14:24:56;;;;;;;16.13;12.35;;;26.00;23.30;;;;;;4769261;29;20046;-91
2022/03/22 14:28:31;;;;;;;;;;;;;;;;;;;;;
2022/03/22 14:31:43;;;;;;;18.13;13.40;;;25.50;23.00;;;;;;4803338;29;20084;-88
2022/03/22 14:37:42;;;;;;;21.17;13.93;;;24.40;23.50;;;;;;4801828;29;20066;-88
2022/03/22 14:40:41;;;;;;;18.30;14.07;;;24.80;22.70;;;;;;4811730;29;20057;-88
2022/03/22 14:43:31;;;;;;;21.27;13.27;;;25.10;22.60;;;;;;4839329;29;20201;-89
2022/03/22 14:50:37;;;;;;;22.88;14.02;;;24.70;24.40;;;;;;4886333;29;20064;-89
2022/03/22 15:00:58;;;;;;;21.77;15.25;;;23.00;24.90;;;;;;4878873;29;20188;-88
2022/03/22 15:09:03;;;;;;;22.63;15.35;;;23.00;25.90;;;;;;4802689;29;20039;-90
2022/03/22 15:12:33;;;;;;;23.20;15.23;;;22.80;25.50;;;;;;4838802;29;20056;-90
2022/03/22 15:16:10;;;;;;;18.63;13.95;;;22.20;26.00;;;;;;4858782;29;20042;-90
2022/03/22 15:19:54;;;;;;;19.80;14.43;;;22.90;26.00;;;;;;4853265;29;20128;-91
2022/03/22 15:22:47;;;;;;;23.63;15.02;;;23.00;25.20;;;;;;4859419;29;20462;-87
2022/03/22 15:29:00;;;;;;;19.85;14.43;;;22.20;25.70;;;;;;4862389;29;20049;-88
2022/03/22 15:32:08;;;;;;;19.52;13.40;;;22.20;25.90;;;;;;4851113;29;20050;-86
2022/03/22 15:36:01;;;;;;;22.92;13.80;;;22.50;25.90;;;;;;4845272;29;20087;-88
2022/03/22 15:39:54;;;;;;;;;;;;;;;;;;;;;
2022/03/22 15:43:22;;;;;;;24.73;14.90;;;21.80;26.50;;;;;;4863108;29;20045;-88
2022/03/22 15:46:17;;;;;;;24.08;14.68;;;22.00;26.40;;;;;;4857421;29;20064;-88
2022/03/22 15:49:07;;;;;;;19.85;14.05;;;22.10;27.00;;;;;;4852654;29;20050;-87
2022/03/22 15:52:04;;;;;;;21.23;14.88;;;21.60;26.30;;;;;;4850510;29;20145;-88
2022/03/22 15:54:55;;;;;;;23.85;15.63;;;21.00;28.30;;;;;;4854993;29;20053;-86
2022/03/22 15:57:50;;;;;;;20.55;14.27;;;20.60;28.30;;;;;;4856221;29;20432;-89
2022/03/22 16:00:40;;;;;;;22.83;16.20;;;20.70;28.60;;;;;;4854642;29;20085;-89
2022/03/22 16:03:28;;;;;;;24.42;15.85;;;20.50;29.10;;;;;;4860044;29;20049;-89
2022/03/22 16:06:20;;;;;;;22.13;16.08;;;20.40;29.20;;;;;;4904794;29;20397;-89
2022/03/22 16:09:10;;;;;;;23.05;15.93;;;20.30;29.90;;;;;;4904863;29;20094;-88
2022/03/22 16:11:58;;;;;;;20.30;15.40;;;20.00;29.80;;;;;;4906542;29;20044;-90
2022/03/22 16:14:50;;;;;;;27.52;15.90;;;19.70;30.00;;;;;;4905164;29;20048;-90
2022/03/22 16:17:39;;;;;;;22.70;16.13;;;19.50;30.50;;;;;;4921428;29;20477;-91
2022/03/22 16:20:28;;;;;;;26.27;16.50;;;19.20;30.40;;;;;;4896486;29;20143;-89
2022/03/22 16:23:17;;;;;;;23.70;16.55;;;19.00;31.50;;;;;;4908412;29;20047;-89
2022/03/22 16:26:08;;;;;;;27.08;17.40;;;18.60;31.70;;;;;;4916261;29;20055;-90
2022/03/22 16:28:56;;;;;;;21.38;15.60;;;18.30;32.40;;;;;;4899256;29;20049;-90
2022/03/22 16:31:52;;;;;;;26.20;16.35;;;18.20;32.40;;;;;;4901049;29;20051;-90
2022/03/22 16:37:45;;;;;;;24.63;15.48;;;17.10;34.20;;;;;;4915936;29;20055;-89
2022/03/22 16:40:38;;;;;;;25.83;15.88;;;16.40;36.10;;;;;;4918919;29;20099;-88
2022/03/22 16:43:29;;;;;;;26.63;15.93;;;15.90;37.00;;;;;;4903305;29;20049;-89
2022/03/22 16:46:21;;;;;;;25.42;16.33;;;15.60;38.30;;;;;;4899837;29;20076;-88
2022/03/22 16:49:10;;;;;;;24.77;15.18;;;15.30;38.40;;;;;;4910343;28;20111;-89
2022/03/22 16:51:58;;;;;;;24.67;16.58;;;15.00;39.80;;;;;;4917799;29;20168;-88
2022/03/22 16:54:49;;;;;;;21.30;15.45;;;14.80;40.00;;;;;;4918603;29;20044;-89
2022/03/22 16:57:36;;;;;;;31.27;15.52;;;14.60;40.40;;;;;;4893077;29;20373;-90